Time;durP1;ratioP1;P1;durP2;ratioP2;P2;SDS_P1;SDS_P2;PMS_P1;PMS_P2;Temp;Humidity;BMP_temperature;BMP_pressure;BME280_temperature;BME280_humidity;BME280_pressure;Samples;Min_cycle;Max_cycle;Signal;HPM_P1;HPM_P2
2022/04/24 00:01:47;;;;;;;11.73;9.63;;;10.20;99.90;;;;;;5041537;28;20556;-94
2022/04/24 00:04:12;;;;;;;12.75;10.45;;;10.10;99.90;;;;;;5057166;28;20041;-91
2022/04/24 00:06:39;;;;;;;16.65;10.75;;;10.10;99.90;;;;;;5047031;28;20060;-92
2022/04/24 00:09:05;;;;;;;11.30;9.25;;;10.10;99.90;;;;;;5050748;28;20045;-93
2022/04/24 00:11:31;;;;;;;11.23;9.68;;;10.00;99.90;;;;;;5051197;28;20053;-91
2022/04/24 00:13:57;;;;;;;12.20;9.70;;;10.00;99.90;;;;;;5047908;28;20044;-92
2022/04/24 00:16:22;;;;;;;12.35;9.32;;;10.00;99.90;;;;;;5050754;28;20068;-91
2022/04/24 00:18:48;;;;;;;11.57;9.68;;;9.90;99.90;;;;;;5059936;28;20041;-93
2022/04/24 00:21:13;;;;;;;11.02;9.00;;;9.90;99.90;;;;;;5061143;28;20037;-93
2022/04/24 00:23:39;;;;;;;11.95;9.57;;;9.90;99.90;;;;;;5044043;28;20095;-91
2022/04/24 00:26:04;;;;;;;11.48;9.60;;;9.90;99.90;;;;;;5047807;28;20049;-91
2022/04/24 00:28:30;;;;;;;10.93;9.27;;;9.80;99.90;;;;;;5041607;28;20103;-94
2022/04/24 00:30:56;;;;;;;15.88;9.48;;;9.80;99.90;;;;;;5052959;28;20144;-92
2022/04/24 00:33:22;;;;;;;11.80;9.38;;;9.80;99.90;;;;;;5069912;28;20044;-92
2022/04/24 00:35:47;;;;;;;11.75;9.68;;;9.80;99.90;;;;;;5120052;22;20364;-93
2022/04/24 00:38:13;;;;;;;12.60;8.95;;;9.80;99.90;;;;;;5051526;28;20151;-88
2022/04/24 00:40:39;;;;;;;11.63;9.77;;;9.80;99.90;;;;;;5052600;28;20518;-90
2022/04/24 00:43:04;;;;;;;12.20;8.65;;;9.70;99.90;;;;;;5051851;28;20040;-92
2022/04/24 00:45:30;;;;;;;11.63;9.13;;;9.70;99.90;;;;;;5052390;28;20117;-89
2022/04/24 00:47:56;;;;;;;11.15;9.25;;;9.70;99.90;;;;;;5053761;28;20137;-93
2022/04/24 00:50:22;;;;;;;11.32;8.95;;;9.70;99.90;;;;;;5050459;28;20056;-93
2022/04/24 00:52:48;;;;;;;11.18;7.80;;;9.60;99.90;;;;;;5054247;28;20037;-89
2022/04/24 00:55:14;;;;;;;10.98;8.82;;;9.60;99.90;;;;;;5054225;28;20044;-90
2022/04/24 00:57:42;;;;;;;11.00;8.88;;;9.60;99.90;;;;;;5063821;28;20036;-90
2022/04/24 01:00:09;;;;;;;13.63;9.43;;;9.50;99.90;;;;;;5062300;28;20037;-89
2022/04/24 01:02:37;;;;;;;13.10;9.23;;;9.50;99.90;;;;;;5040418;28;20048;-94
2022/04/24 01:05:03;;;;;;;11.85;8.90;;;9.50;99.90;;;;;;5071176;28;20305;-94
2022/04/24 01:07:28;;;;;;;12.38;9.35;;;9.40;99.90;;;;;;5062959;28;20060;-91
2022/04/24 01:09:57;;;;;;;12.40;9.23;;;9.40;99.90;;;;;;5043739;28;20048;-87
2022/04/24 01:12:22;;;;;;;10.82;9.00;;;9.40;99.90;;;;;;5032638;28;20091;-92
2022/04/24 01:14:48;;;;;;;12.80;9.20;;;9.40;99.90;;;;;;5055697;28;20040;-93
2022/04/24 01:17:14;;;;;;;14.50;9.55;;;9.30;99.90;;;;;;5052151;28;20480;-93
2022/04/24 01:19:40;;;;;;;11.57;7.68;;;9.30;99.90;;;;;;5054585;28;20041;-93
2022/04/24 01:22:06;;;;;;;11.65;9.05;;;9.30;99.90;;;;;;5051849;28;20037;-93
2022/04/24 01:24:31;;;;;;;10.68;8.77;;;9.30;99.90;;;;;;5037125;28;20128;-91
2022/04/24 01:26:57;;;;;;;11.45;8.98;;;9.30;99.90;;;;;;5057915;28;20053;-94
2022/04/24 01:29:23;;;;;;;10.93;8.93;;;9.20;99.90;;;;;;5056811;28;20507;-93
2022/04/24 01:31:49;;;;;;;11.40;9.15;;;9.20;99.90;;;;;;5059392;28;20045;-89
2022/04/24 01:34:16;;;;;;;11.75;8.40;;;9.20;99.90;;;;;;5059775;28;20153;-96
2022/04/24 01:36:42;;;;;;;11.82;8.65;;;9.10;99.90;;;;;;5058764;28;20183;-93
2022/04/24 01:39:08;;;;;;;11.65;9.32;;;9.10;99.90;;;;;;5063505;28;20045;-95
2022/04/24 01:41:37;;;;;;;11.88;9.25;;;9.10;99.90;;;;;;5057229;28;20091;-94
2022/04/24 01:44:03;;;;;;;11.13;7.63;;;9.00;99.90;;;;;;5048939;28;20511;-92
2022/04/24 01:46:29;;;;;;;13.07;6.72;;;8.90;99.90;;;;;;5057089;28;20045;-93
2022/04/24 01:48:54;;;;;;;11.30;8.32;;;8.80;99.90;;;;;;5054032;28;20052;-94
2022/04/24 01:51:20;;;;;;;11.63;9.27;;;8.80;99.90;;;;;;5060572;28;20076;-94
2022/04/24 01:53:45;;;;;;;11.23;9.23;;;8.80;99.90;;;;;;5060138;28;20065;-93
2022/04/24 01:56:12;;;;;;;12.30;9.80;;;8.80;99.90;;;;;;5059958;28;20044;-92
2022/04/24 01:58:39;;;;;;;12.15;6.55;;;8.70;99.90;;;;;;5079848;28;20049;-94
2022/04/24 02:01:06;;;;;;;13.85;9.80;;;8.60;99.90;;;;;;5067725;28;20112;-90
2022/04/24 02:03:32;;;;;;;13.73;7.88;;;8.60;99.90;;;;;;5064220;28;20068;-93
2022/04/24 02:05:58;;;;;;;11.30;9.57;;;8.60;99.90;;;;;;5068240;28;20049;-92
2022/04/24 02:08:24;;;;;;;11.27;8.52;;;8.60;99.90;;;;;;5069690;28;20066;-95
2022/04/24 02:10:50;;;;;;;11.60;9.90;;;8.50;99.90;;;;;;5061614;28;20037;-91
2022/04/24 02:13:16;;;;;;;12.05;9.40;;;8.50;99.90;;;;;;5049856;28;20555;-92
2022/04/24 02:15:42;;;;;;;11.23;7.47;;;8.50;99.90;;;;;;5060540;28;20041;-93
2022/04/24 02:18:08;;;;;;;11.95;9.52;;;8.40;99.90;;;;;;5059424;28;20044;-94
2022/04/24 02:20:34;;;;;;;11.50;9.30;;;8.50;99.90;;;;;;5059185;28;20053;-94
2022/04/24 02:23:01;;;;;;;12.07;7.22;;;8.40;99.90;;;;;;5060956;28;20037;-94
2022/04/24 02:25:27;;;;;;;11.82;9.07;;;8.40;99.90;;;;;;5061855;28;20045;-93
2022/04/24 02:27:55;;;;;;;12.02;7.80;;;8.30;99.90;;;;;;5056832;28;20048;-94
2022/04/24 02:30:22;;;;;;;11.90;9.43;;;8.30;99.90;;;;;;5063232;28;20101;-94
2022/04/24 02:32:48;;;;;;;11.98;6.93;;;8.30;99.90;;;;;;5067542;28;20080;-92
2022/04/24 02:35:13;;;;;;;12.27;9.88;;;8.20;99.90;;;;;;5061836;28;20057;-94
2022/04/24 02:37:39;;;;;;;12.32;10.20;;;8.20;99.90;;;;;;5055034;28;20111;-94
2022/04/24 02:40:09;;;;;;;11.95;10.10;;;8.20;99.90;;;;;;5038871;28;20040;-95
2022/04/24 02:42:36;;;;;;;11.80;10.48;;;8.10;99.90;;;;;;5053451;28;20057;-93
2022/04/24 02:45:03;;;;;;;12.45;7.43;;;8.10;99.90;;;;;;5055998;28;20079;-92
2022/04/24 02:47:29;;;;;;;13.38;6.53;;;8.00;99.90;;;;;;5053655;28;20059;-93
2022/04/24 02:49:54;;;;;;;12.23;7.03;;;7.90;99.90;;;;;;5059360;28;20123;-92
2022/04/24 02:52:20;;;;;;;12.32;8.23;;;7.90;99.90;;;;;;5054168;28;20106;-90
2022/04/24 02:54:45;;;;;;;12.50;10.50;;;7.80;99.90;;;;;;5057333;28;20040;-94
2022/04/24 02:57:12;;;;;;;11.90;8.02;;;7.80;99.90;;;;;;5054330;28;20440;-95
2022/04/24 02:59:38;;;;;;;12.65;8.65;;;7.80;99.90;;;;;;5054433;28;20067;-92
2022/04/24 03:02:04;;;;;;;13.25;7.70;;;7.80;99.90;;;;;;5059905;28;20049;-88
2022/04/24 03:04:29;;;;;;;12.05;8.43;;;7.80;99.90;;;;;;5051597;28;20053;-94
2022/04/24 03:06:55;;;;;;;13.50;8.50;;;7.70;99.90;;;;;;5054146;28;20126;-91
2022/04/24 03:09:20;;;;;;;12.70;7.65;;;7.70;99.90;;;;;;5052126;28;20047;-94
2022/04/24 03:11:46;;;;;;;12.73;10.02;;;7.70;99.90;;;;;;5051792;28;20032;-91
2022/04/24 03:14:12;;;;;;;13.13;8.20;;;7.70;99.90;;;;;;5056664;28;20041;-95
2022/04/24 03:16:38;;;;;;;11.75;7.65;;;7.70;99.90;;;;;;5058127;28;20046;-91
2022/04/24 03:19:03;;;;;;;12.43;7.53;;;7.70;99.90;;;;;;5053324;28;20095;-95
2022/04/24 03:21:29;;;;;;;12.55;8.52;;;7.60;99.90;;;;;;5049967;28;20128;-93
2022/04/24 03:23:55;;;;;;;12.45;8.07;;;7.60;99.90;;;;;;5054869;28;20049;-92
2022/04/24 03:26:20;;;;;;;12.75;7.75;;;7.60;99.90;;;;;;5051629;28;20109;-92
2022/04/24 03:28:46;;;;;;;12.18;10.18;;;7.60;99.90;;;;;;5051618;28;20044;-90
2022/04/24 03:31:12;;;;;;;10.70;7.60;;;7.60;99.90;;;;;;5051957;28;20041;-92
2022/04/24 03:33:38;;;;;;;11.65;7.80;;;7.60;99.90;;;;;;5055668;28;20048;-93
2022/04/24 03:36:03;;;;;;;10.55;7.18;;;7.50;99.90;;;;;;5045932;28;20150;-94
2022/04/24 03:38:29;;;;;;;11.88;10.40;;;7.50;99.90;;;;;;5053032;28;20303;-92
2022/04/24 03:40:55;;;;;;;12.35;6.57;;;7.60;99.90;;;;;;5068084;28;20048;-93
2022/04/24 03:43:21;;;;;;;12.48;10.32;;;7.50;99.90;;;;;;5057216;28;20045;-94
2022/04/24 03:45:46;;;;;;;11.95;7.68;;;7.40;99.90;;;;;;5049909;28;20167;-92
2022/04/24 03:48:12;;;;;;;10.98;6.18;;;7.40;99.90;;;;;;5052098;28;20497;-94
2022/04/24 03:50:38;;;;;;;14.55;7.75;;;7.40;99.90;;;;;;5043407;28;20100;-92
2022/04/24 03:53:04;;;;;;;12.82;7.70;;;7.40;99.90;;;;;;5053065;28;20389;-93
2022/04/24 03:55:29;;;;;;;11.82;7.50;;;7.40;99.90;;;;;;5057991;28;20056;-93
2022/04/24 03:57:55;;;;;;;16.33;8.63;;;7.40;99.90;;;;;;5047467;28;20032;-94
2022/04/24 04:00:20;;;;;;;12.70;9.35;;;7.30;99.90;;;;;;5069233;28;20133;-93
2022/04/24 04:02:47;;;;;;;12.70;7.93;;;7.40;99.90;;;;;;5058481;28;20458;-93
2022/04/24 04:05:13;;;;;;;11.98;10.23;;;7.30;99.90;;;;;;5068845;28;20064;-95
2022/04/24 04:07:39;;;;;;;13.23;7.50;;;7.40;99.90;;;;;;5072044;28;20049;-89
2022/04/24 04:10:06;;;;;;;14.88;7.32;;;7.40;99.90;;;;;;5054362;28;20041;-92
2022/04/24 04:12:32;;;;;;;12.75;10.25;;;7.30;99.90;;;;;;5058894;28;20072;-92
2022/04/24 04:15:00;;;;;;;12.85;8.35;;;7.30;99.90;;;;;;5056241;28;20094;-93
2022/04/24 04:17:26;;;;;;;12.82;7.80;;;7.30;99.90;;;;;;5051094;28;20492;-92
2022/04/24 04:19:51;;;;;;;12.60;10.68;;;7.30;99.90;;;;;;5053198;28;20045;-93
2022/04/24 04:22:17;;;;;;;12.02;7.38;;;7.30;99.90;;;;;;5053856;28;20120;-91
2022/04/24 04:24:44;;;;;;;12.32;6.60;;;7.20;99.90;;;;;;5047140;28;20049;-91
2022/04/24 04:27:10;;;;;;;12.25;7.78;;;7.20;99.90;;;;;;5053889;28;20057;-91
2022/04/24 04:29:36;;;;;;;12.70;6.57;;;7.10;99.90;;;;;;5056590;28;20057;-93
2022/04/24 04:32:02;;;;;;;11.95;7.60;;;7.10;99.90;;;;;;5065712;28;20052;-94
2022/04/24 04:34:28;;;;;;;12.65;7.97;;;7.10;99.90;;;;;;5057590;28;20036;-95
2022/04/24 04:36:54;;;;;;;12.32;10.63;;;7.10;99.90;;;;;;5061703;28;20049;-92
2022/04/24 04:39:20;;;;;;;16.00;8.10;;;7.10;99.90;;;;;;5055500;28;20105;-91
2022/04/24 04:41:46;;;;;;;12.73;10.25;;;7.10;99.90;;;;;;5059647;28;20032;-93
2022/04/24 04:44:12;;;;;;;12.80;7.35;;;7.20;99.90;;;;;;5030147;28;20046;-91
2022/04/24 04:46:38;;;;;;;12.10;6.57;;;7.10;99.90;;;;;;5053451;28;20049;-93
2022/04/24 04:49:04;;;;;;;12.60;7.75;;;7.10;99.90;;;;;;5028865;28;20358;-93
2022/04/24 04:51:29;;;;;;;12.95;7.80;;;7.10;99.90;;;;;;5053953;28;20291;-93
2022/04/24 04:53:55;;;;;;;12.15;7.53;;;7.10;99.90;;;;;;5054691;28;20066;-93
2022/04/24 04:56:22;;;;;;;13.05;8.32;;;7.20;99.90;;;;;;5056585;28;20071;-92
2022/04/24 04:58:47;;;;;;;13.57;8.80;;;7.20;99.90;;;;;;5055451;28;20041;-92
2022/04/24 05:01:13;;;;;;;12.77;10.00;;;7.20;99.90;;;;;;5055942;28;20120;-88
2022/04/24 05:03:38;;;;;;;13.95;7.40;;;7.30;99.90;;;;;;5047768;28;20099;-91
2022/04/24 05:06:04;;;;;;;11.18;6.30;;;7.30;99.90;;;;;;5051361;28;20036;-92
2022/04/24 05:08:29;;;;;;;12.88;10.38;;;7.40;99.90;;;;;;5018376;28;20479;-95
2022/04/24 05:10:55;;;;;;;12.48;10.65;;;7.40;99.90;;;;;;5048127;28;20088;-88
2022/04/24 05:13:21;;;;;;;12.48;10.55;;;7.60;99.90;;;;;;5025112;28;20044;-89
2022/04/24 05:15:46;;;;;;;14.32;8.23;;;7.60;99.90;;;;;;5043043;28;20045;-89
2022/04/24 05:18:12;;;;;;;12.15;6.60;;;7.70;99.90;;;;;;5039448;28;20037;-90
2022/04/24 05:20:38;;;;;;;12.60;10.07;;;7.60;99.90;;;;;;5026542;28;20084;-91
2022/04/24 05:23:05;;;;;;;11.88;6.63;;;7.70;99.90;;;;;;5038838;28;20040;-87
2022/04/24 05:25:32;;;;;;;12.55;7.28;;;7.70;99.90;;;;;;5022349;28;20049;-87
2022/04/24 05:27:57;;;;;;;12.88;7.68;;;7.80;99.90;;;;;;5037691;28;20048;-86
2022/04/24 05:30:23;;;;;;;11.90;7.82;;;7.80;99.90;;;;;;5008789;28;20044;-90
2022/04/24 05:32:51;;;;;;;10.77;7.22;;;7.80;99.90;;;;;;5013165;28;20053;-92
2022/04/24 05:35:17;;;;;;;11.90;8.00;;;7.90;99.90;;;;;;5035559;28;20057;-87
2022/04/24 05:37:45;;;;;;;11.13;7.00;;;7.90;99.90;;;;;;5038672;28;20051;-89
2022/04/24 05:40:11;;;;;;;13.00;9.20;;;7.90;99.90;;;;;;5041210;28;20548;-91
2022/04/24 05:42:48;;;;;;;11.60;7.82;;;8.00;99.90;;;;;;5043325;28;20401;-91
2022/04/24 05:45:15;;;;;;;13.77;7.32;;;8.00;99.90;;;;;;5044842;28;20045;-91
2022/04/24 05:47:44;;;;;;;12.23;9.35;;;7.90;99.90;;;;;;5037400;28;20520;-90
2022/04/24 05:50:10;;;;;;;11.57;7.55;;;8.00;99.90;;;;;;5047411;28;20040;-90
2022/04/24 05:52:35;;;;;;;12.93;7.65;;;8.00;99.90;;;;;;5050954;28;20846;-94
2022/04/24 05:55:01;;;;;;;11.05;7.38;;;8.10;99.90;;;;;;5047148;28;20496;-90
2022/04/24 05:57:26;;;;;;;13.55;7.85;;;8.10;99.90;;;;;;5050425;28;20044;-94
2022/04/24 05:59:52;;;;;;;13.48;9.77;;;8.20;99.90;;;;;;5050415;28;20033;-92
2022/04/24 06:02:17;;;;;;;12.73;9.90;;;8.30;99.90;;;;;;5026212;28;20126;-93
2022/04/24 06:04:43;;;;;;;12.20;9.30;;;8.40;99.90;;;;;;5045732;28;20048;-92
2022/04/24 06:07:10;;;;;;;14.40;9.45;;;8.50;99.90;;;;;;5022869;28;20045;-89
2022/04/24 06:09:35;;;;;;;12.63;7.45;;;8.50;99.90;;;;;;5032548;28;20072;-88
2022/04/24 06:12:01;;;;;;;13.25;7.85;;;8.50;99.90;;;;;;5039519;28;20045;-94
2022/04/24 06:14:28;;;;;;;12.10;9.60;;;8.60;99.90;;;;;;5057740;28;20073;-94
2022/04/24 06:16:54;;;;;;;14.10;8.60;;;8.70;99.90;;;;;;5057418;28;20043;-93
2022/04/24 06:19:19;;;;;;;13.90;8.25;;;8.70;99.90;;;;;;5055042;28;20558;-94
2022/04/24 06:21:45;;;;;;;13.65;9.75;;;8.80;99.90;;;;;;5059715;28;20048;-91
2022/04/24 06:24:10;;;;;;;12.23;9.85;;;8.90;99.90;;;;;;5054313;28;20048;-92
2022/04/24 06:26:36;;;;;;;12.35;9.57;;;9.00;99.90;;;;;;5060993;28;20060;-93
2022/04/24 06:29:02;;;;;;;11.80;9.70;;;9.00;99.90;;;;;;5066782;28;20117;-93
2022/04/24 06:31:28;;;;;;;13.75;8.45;;;9.10;99.90;;;;;;5062289;28;20045;-93
2022/04/24 06:33:54;;;;;;;13.40;10.32;;;9.10;99.90;;;;;;5061641;28;20041;-92
2022/04/24 06:36:19;;;;;;;12.60;9.73;;;9.30;99.90;;;;;;5062007;28;20056;-94
2022/04/24 06:38:45;;;;;;;12.48;10.05;;;9.50;99.90;;;;;;5046351;28;20071;-92
2022/04/24 06:41:11;;;;;;;11.88;9.27;;;9.60;99.90;;;;;;5057433;28;20045;-92
2022/04/24 06:43:36;;;;;;;13.95;9.55;;;9.80;99.90;;;;;;5045707;28;20091;-92
2022/04/24 06:46:02;;;;;;;13.07;9.68;;;9.90;99.90;;;;;;5062182;28;20044;-93
2022/04/24 06:48:31;;;;;;;12.40;9.45;;;10.00;99.90;;;;;;5061561;28;20071;-91
2022/04/24 06:50:56;;;;;;;15.13;9.95;;;10.10;99.90;;;;;;5057290;28;20041;-94
2022/04/24 06:53:22;;;;;;;12.57;9.50;;;10.30;99.90;;;;;;5037541;28;20061;-91
2022/04/24 06:55:49;;;;;;;11.13;8.90;;;10.40;99.90;;;;;;5069315;28;20394;-90
2022/04/24 06:58:17;;;;;;;12.50;9.43;;;10.50;99.90;;;;;;5070455;28;20041;-93
2022/04/24 07:00:45;;;;;;;13.05;8.88;;;10.50;99.90;;;;;;5060336;28;20060;-93
2022/04/24 07:03:14;;;;;;;11.90;8.93;;;10.60;99.90;;;;;;5067714;28;20029;-92
2022/04/24 07:05:40;;;;;;;12.65;9.25;;;10.60;99.90;;;;;;5063253;28;20052;-91
2022/04/24 07:08:06;;;;;;;12.23;9.10;;;10.60;99.90;;;;;;5051340;28;20053;-90
2022/04/24 07:10:32;;;;;;;13.90;9.30;;;10.60;99.90;;;;;;5050731;28;20060;-89
2022/04/24 07:12:58;;;;;;;11.43;8.80;;;10.70;99.90;;;;;;5061942;28;20044;-91
2022/04/24 07:15:24;;;;;;;11.30;8.63;;;10.80;99.90;;;;;;5050241;28;20098;-91
2022/04/24 07:17:51;;;;;;;11.88;8.88;;;11.00;99.90;;;;;;5038041;28;20045;-91
2022/04/24 07:20:18;;;;;;;11.60;8.05;;;11.00;99.90;;;;;;5049081;28;20036;-87
2022/04/24 07:22:57;;;;;;;11.50;8.27;;;11.10;99.90;;;;;;5053325;28;20041;-92
2022/04/24 07:25:27;;;;;;;11.05;8.38;;;11.20;99.90;;;;;;5026890;28;20066;-90
2022/04/24 07:27:53;;;;;;;12.15;8.23;;;11.20;99.90;;;;;;5048368;28;20041;-91
2022/04/24 07:30:21;;;;;;;11.68;8.15;;;11.30;99.90;;;;;;5058598;28;20029;-92
2022/04/24 07:32:51;;;;;;;11.07;8.15;;;11.40;99.90;;;;;;5060858;28;20044;-90
2022/04/24 07:35:20;;;;;;;10.70;6.97;;;11.50;99.90;;;;;;5041773;28;20072;-89
2022/04/24 07:37:46;;;;;;;12.65;7.80;;;11.50;99.90;;;;;;5054941;28;20311;-90
2022/04/24 07:40:17;;;;;;;9.85;7.00;;;11.50;99.90;;;;;;5051627;28;20045;-91
2022/04/24 07:42:51;;;;;;;11.15;7.10;;;11.50;99.90;;;;;;5048356;28;20045;-89
2022/04/24 07:45:38;;;;;;;10.32;7.13;;;11.60;99.90;;;;;;5049544;28;20140;-91
2022/04/24 07:48:06;;;;;;;10.80;6.63;;;11.70;99.90;;;;;;5045177;28;20044;-88
2022/04/24 07:50:46;;;;;;;10.20;6.70;;;11.70;99.90;;;;;;5039116;28;20052;-87
2022/04/24 07:53:13;;;;;;;12.07;6.70;;;11.70;99.90;;;;;;5062931;28;20043;-87
2022/04/24 07:55:43;;;;;;;11.40;6.95;;;11.80;99.90;;;;;;5041668;28;20091;-86
2022/04/24 07:58:08;;;;;;;9.85;5.80;;;11.80;99.90;;;;;;5046259;28;20040;-87
2022/04/24 08:00:34;;;;;;;9.32;5.65;;;11.90;99.90;;;;;;5043564;28;20397;-88
2022/04/24 08:03:04;;;;;;;11.63;7.03;;;12.00;99.90;;;;;;5045338;28;20049;-86
2022/04/24 08:05:33;;;;;;;9.40;5.65;;;12.00;99.90;;;;;;5029951;28;20504;-87
2022/04/24 08:08:01;;;;;;;9.50;5.20;;;12.00;99.90;;;;;;5046637;28;20049;-86
2022/04/24 08:10:33;;;;;;;8.75;4.88;;;12.00;99.90;;;;;;5048938;28;20049;-92
2022/04/24 08:12:59;;;;;;;9.02;5.20;;;12.00;99.90;;;;;;5034033;28;20444;-87
2022/04/24 08:15:25;;;;;;;9.15;4.95;;;12.10;99.90;;;;;;5043110;28;20140;-88
2022/04/24 08:17:51;;;;;;;8.75;5.20;;;12.20;99.90;;;;;;5041887;28;20120;-89
2022/04/24 08:20:17;;;;;;;7.60;4.55;;;12.30;99.90;;;;;;5046572;28;20029;-87
2022/04/24 08:22:47;;;;;;;8.05;5.20;;;12.40;99.90;;;;;;5051077;28;20045;-89
2022/04/24 08:25:15;;;;;;;8.13;4.82;;;12.60;99.90;;;;;;5046756;28;20453;-88
2022/04/24 08:27:41;;;;;;;7.75;4.65;;;12.70;99.90;;;;;;5043207;28;20049;-85
2022/04/24 08:30:09;;;;;;;8.48;4.80;;;12.70;99.90;;;;;;5044149;28;20384;-85
2022/04/24 08:32:35;;;;;;;9.02;4.35;;;12.80;99.90;;;;;;5044014;28;20041;-86
2022/04/24 08:35:02;;;;;;;8.57;4.50;;;12.80;99.90;;;;;;5044650;28;20503;-86
2022/04/24 08:37:28;;;;;;;8.10;4.10;;;12.90;99.90;;;;;;5044205;28;20044;-86
2022/04/24 08:39:54;;;;;;;6.93;3.70;;;13.10;99.90;;;;;;5045145;28;20045;-89
2022/04/24 08:42:23;;;;;;;7.32;3.95;;;13.10;99.90;;;;;;5045519;28;20076;-88
2022/04/24 08:44:50;;;;;;;10.07;4.38;;;13.30;99.90;;;;;;5045852;28;20049;-87
2022/04/24 08:47:17;;;;;;;7.80;3.10;;;13.40;99.90;;;;;;5045789;28;20397;-87
2022/04/24 08:49:43;;;;;;;6.88;3.05;;;13.50;99.90;;;;;;5045157;28;20109;-86
2022/04/24 08:52:10;;;;;;;6.80;3.10;;;13.60;99.90;;;;;;5043608;28;20045;-89
2022/04/24 08:54:41;;;;;;;8.68;3.10;;;13.70;99.90;;;;;;5045811;28;20048;-89
2022/04/24 08:57:10;;;;;;;7.22;3.22;;;13.80;98.20;;;;;;5043957;28;20041;-88
2022/04/24 08:59:37;;;;;;;7.75;3.13;;;13.90;99.40;;;;;;5046138;28;20049;-88
2022/04/24 09:02:03;;;;;;;6.97;3.00;;;13.90;98.10;;;;;;5045249;28;20080;-87
2022/04/24 09:04:37;;;;;;;7.20;2.90;;;14.00;98.50;;;;;;5044985;28;20048;-87
2022/04/24 09:07:08;;;;;;;6.50;2.95;;;14.10;97.20;;;;;;5044360;28;20438;-88
2022/04/24 09:09:42;;;;;;;7.65;2.95;;;14.10;97.40;;;;;;5045723;28;20079;-88
2022/04/24 09:12:09;;;;;;;7.05;3.30;;;14.20;96.90;;;;;;5045526;28;20232;-88
2022/04/24 09:14:35;;;;;;;7.22;3.10;;;14.30;97.30;;;;;;5045174;28;20056;-89
2022/04/24 09:17:05;;;;;;;6.53;3.20;;;14.40;97.20;;;;;;5042518;28;20036;-86
2022/04/24 09:19:31;;;;;;;7.55;3.53;;;14.50;98.70;;;;;;5043897;28;20389;-88
2022/04/24 09:22:09;;;;;;;6.70;3.15;;;14.60;97.80;;;;;;5044547;28;20045;-87
2022/04/24 09:24:52;;;;;;;6.88;3.10;;;14.60;96.60;;;;;;5044175;28;20480;-86
2022/04/24 09:27:25;;;;;;;7.03;3.58;;;14.70;96.60;;;;;;5026279;28;20056;-87
2022/04/24 09:29:59;;;;;;;7.05;4.03;;;14.70;95.70;;;;;;5042669;28;20131;-89
2022/04/24 09:32:27;;;;;;;7.43;3.90;;;14.80;96.10;;;;;;5041637;28;20071;-89
2022/04/24 09:34:53;;;;;;;7.55;3.60;;;14.90;95.30;;;;;;5044283;28;20060;-88
2022/04/24 09:37:20;;;;;;;8.10;3.47;;;14.90;96.10;;;;;;5043687;28;20174;-88
2022/04/24 09:39:46;;;;;;;9.38;3.55;;;14.90;95.80;;;;;;5045096;28;20037;-87
2022/04/24 09:42:14;;;;;;;6.47;3.53;;;14.90;95.90;;;;;;5042239;28;20473;-85
2022/04/24 09:44:45;;;;;;;7.40;3.63;;;15.00;95.10;;;;;;5032675;28;20480;-89
2022/04/24 09:47:11;;;;;;;8.57;3.97;;;15.10;95.00;;;;;;5027321;28;20563;-88
2022/04/24 09:49:45;;;;;;;7.85;3.75;;;15.10;94.00;;;;;;5027477;28;20435;-86
2022/04/24 09:52:19;;;;;;;6.72;3.67;;;15.20;93.40;;;;;;5044417;28;20052;-85
2022/04/24 09:54:47;;;;;;;8.43;4.00;;;15.30;92.10;;;;;;5052277;28;20495;-87
2022/04/24 09:57:14;;;;;;;6.20;3.58;;;15.30;91.80;;;;;;5047566;28;20427;-87
2022/04/24 09:59:43;;;;;;;7.00;3.63;;;15.30;91.40;;;;;;5046294;28;20109;-86
2022/04/24 10:02:14;;;;;;;7.90;3.90;;;15.30;91.10;;;;;;5047447;28;20498;-89
2022/04/24 10:04:41;;;;;;;;;;;15.40;90.80;;;;;;5045151;28;20092;-89
2022/04/24 10:07:09;;;;;;;7.80;4.13;;;15.40;90.30;;;;;;5051479;28;19944;-86
2022/04/24 10:09:37;;;;;;;7.72;3.50;;;15.50;90.90;;;;;;5039575;28;20167;-88
2022/04/24 10:12:08;;;;;;;8.13;3.67;;;15.60;90.70;;;;;;5043856;28;20123;-86
2022/04/24 10:14:41;;;;;;;9.38;3.53;;;15.70;89.10;;;;;;5046085;28;20045;-88
2022/04/24 10:17:15;;;;;;;9.07;3.90;;;15.70;87.90;;;;;;5046701;28;20040;-88
2022/04/24 10:20:15;;;;;;;7.93;3.85;;;15.70;87.90;;;;;;5069439;28;20055;-91
2022/04/24 10:22:44;;;;;;;6.90;3.30;;;15.80;84.00;;;;;;5056755;28;20447;-86
2022/04/24 10:25:10;;;;;;;6.88;3.55;;;15.80;85.50;;;;;;5033671;28;20045;-91
2022/04/24 10:27:43;;;;;;;7.60;3.60;;;15.90;83.00;;;;;;5046118;28;20052;-92
2022/04/24 10:30:25;;;;;;;7.40;3.47;;;15.90;76.10;;;;;;5039280;28;20061;-92
2022/04/24 10:33:18;;;;;;;7.43;3.55;;;15.90;76.70;;;;;;5051762;28;20053;-90
2022/04/24 10:35:51;;;;;;;8.60;2.72;;;15.80;75.70;;;;;;5023532;28;20053;-91
2022/04/24 10:38:18;;;;;;;6.13;3.08;;;15.90;74.50;;;;;;5015247;28;20211;-88
2022/04/24 10:40:59;;;;;;;5.95;3.00;;;15.90;75.70;;;;;;5020559;28;20056;-89
2022/04/24 10:43:25;;;;;;;6.70;3.10;;;15.90;72.50;;;;;;5038591;28;20052;-85
2022/04/24 10:45:51;;;;;;;7.07;2.90;;;16.00;74.00;;;;;;5044330;28;20053;-88
2022/04/24 10:48:17;;;;;;;6.47;2.90;;;16.00;72.60;;;;;;5043982;28;20499;-91
2022/04/24 10:50:47;;;;;;;4.65;2.40;;;16.00;73.80;;;;;;5044193;28;20056;-88
2022/04/24 10:53:13;;;;;;;6.15;2.30;;;16.00;72.30;;;;;;5050372;28;20436;-89
2022/04/24 10:55:39;;;;;;;6.40;2.53;;;16.00;68.20;;;;;;5047291;28;20053;-86
2022/04/24 10:58:05;;;;;;;5.68;2.72;;;16.10;67.40;;;;;;5037787;28;20116;-89
2022/04/24 11:00:34;;;;;;;6.97;2.80;;;16.20;67.80;;;;;;5045016;28;20381;-82
2022/04/24 11:03:14;;;;;;;6.75;2.70;;;16.10;65.30;;;;;;5044782;28;20389;-92
2022/04/24 11:05:43;;;;;;;5.75;2.45;;;16.20;68.50;;;;;;5043444;28;20134;-85
2022/04/24 11:08:10;;;;;;;4.95;2.20;;;16.40;67.00;;;;;;5035439;28;20049;-87
2022/04/24 11:10:43;;;;;;;6.22;2.58;;;16.50;65.10;;;;;;5048285;28;20401;-91
2022/04/24 11:13:11;;;;;;;6.28;2.85;;;16.70;66.50;;;;;;5038999;28;20472;-85
2022/04/24 11:15:42;;;;;;;6.00;2.60;;;16.70;66.20;;;;;;5046919;28;20045;-88
2022/04/24 11:18:26;;;;;;;7.45;3.10;;;16.80;65.60;;;;;;5041348;28;20041;-91
2022/04/24 11:21:04;;;;;;;6.50;2.80;;;16.90;62.20;;;;;;5036312;28;20040;-86
2022/04/24 11:23:38;;;;;;;7.90;2.85;;;16.70;57.00;;;;;;5046698;28;20110;-89
2022/04/24 11:26:08;;;;;;;6.75;3.20;;;16.60;58.60;;;;;;5028256;28;20047;-92
2022/04/24 11:28:40;;;;;;;7.03;2.63;;;16.40;62.10;;;;;;5041108;28;20041;-90
2022/04/24 11:31:32;;;;;;;6.93;3.05;;;16.50;61.20;;;;;;5038444;28;20047;-90
2022/04/24 11:34:01;;;;;;;6.95;2.95;;;16.50;67.90;;;;;;5031352;28;20542;-91
2022/04/24 11:36:33;;;;;;;6.47;2.90;;;16.60;68.80;;;;;;5042114;28;20131;-90
2022/04/24 11:39:07;;;;;;;6.13;2.40;;;16.70;68.80;;;;;;5047750;28;20041;-89
2022/04/24 11:41:33;;;;;;;6.25;2.97;;;16.70;66.40;;;;;;5045224;28;20045;-90
2022/04/24 11:50:13;;;;;;;6.75;3.08;;;16.60;65.00;;;;;;5042710;28;20052;-88
2022/04/24 11:52:28;;;;;;;10.50;9.27;;;16.40;69.40;;;;;;5043379;28;20145;-87
2022/04/24 11:54:55;;;;;;;17.52;14.60;;;16.20;67.90;;;;;;5046576;28;20072;-88
2022/04/24 11:57:21;;;;;;;7.95;4.13;;;16.10;69.30;;;;;;5034945;28;20160;-90
2022/04/24 11:59:54;;;;;;;7.35;2.90;;;16.10;67.40;;;;;;5041630;28;20124;-92
2022/04/24 12:02:26;;;;;;;5.93;2.63;;;16.10;64.60;;;;;;5045689;28;20036;-90
2022/04/24 12:04:53;;;;;;;5.75;2.50;;;16.00;64.30;;;;;;5042162;28;20049;-88
2022/04/24 12:07:19;;;;;;;5.40;2.50;;;16.20;63.60;;;;;;5043245;28;20126;-87
2022/04/24 12:09:44;;;;;;;5.93;2.70;;;16.50;65.10;;;;;;5037751;28;20084;-86
2022/04/24 12:12:14;;;;;;;8.18;2.72;;;16.70;64.50;;;;;;5043760;28;20048;-89
2022/04/24 12:14:47;;;;;;;7.13;2.60;;;16.90;66.10;;;;;;5048492;28;20048;-91
2022/04/24 12:17:13;;;;;;;5.55;2.92;;;16.90;65.80;;;;;;5054648;28;20037;-90
2022/04/24 12:19:49;;;;;;;7.22;3.03;;;16.70;65.80;;;;;;5061913;28;20079;-91
2022/04/24 12:22:14;;;;;;;8.27;2.92;;;16.60;67.70;;;;;;5048064;28;20056;-89
2022/04/24 12:24:45;;;;;;;6.97;3.10;;;16.30;67.90;;;;;;5048795;28;20041;-90
2022/04/24 12:27:15;;;;;;;6.37;2.93;;;16.20;69.60;;;;;;5041032;28;20048;-92
2022/04/24 12:29:48;;;;;;;6.45;2.90;;;16.10;70.60;;;;;;5048393;28;20041;-91
2022/04/24 12:32:14;;;;;;;6.13;2.92;;;16.00;70.90;;;;;;5047159;28;20558;-92
2022/04/24 12:34:41;;;;;;;7.95;3.28;;;15.90;71.80;;;;;;5049290;28;20075;-90
2022/04/24 12:37:08;;;;;;;5.28;2.80;;;15.90;72.40;;;;;;5048623;28;20048;-93
2022/04/24 12:39:34;;;;;;;6.45;3.00;;;16.10;71.70;;;;;;5048367;28;20041;-90
2022/04/24 12:42:11;;;;;;;7.45;3.22;;;16.20;71.70;;;;;;5043953;28;20084;-91
2022/04/24 12:44:37;;;;;;;6.75;3.75;;;16.40;71.60;;;;;;5040574;28;20041;-92
2022/04/24 12:47:03;;;;;;;7.35;3.20;;;16.60;71.10;;;;;;5025383;28;20045;-92
2022/04/24 12:49:31;;;;;;;7.05;2.75;;;16.80;68.80;;;;;;5047953;28;20461;-90
2022/04/24 12:51:58;;;;;;;5.50;2.55;;;16.90;67.50;;;;;;5041210;28;20045;-90
2022/04/24 12:54:23;;;;;;;9.15;3.50;;;16.90;65.80;;;;;;5037516;28;20064;-90